Time;durP1;ratioP1;P1;durP2;ratioP2;P2;SDS_P1;SDS_P2;PMS_P1;PMS_P2;Temp;Humidity;BMP_temperature;BMP_pressure;BME280_temperature;BME280_humidity;BME280_pressure;Samples;Min_cycle;Max_cycle;Signal;HPM_P1;HPM_P2
2021/12/31 00:00:51;;;;;;;3.20;1.92;;;;;;;14.51;65.62;99766.97;5175668;28;20140;-66
2021/12/31 00:03:41;;;;;;;4.30;2.00;;;;;;;14.48;65.91;99769.06;5178336;28;20159;-66
2021/12/31 00:06:32;;;;;;;4.65;2.10;;;;;;;14.30;65.99;99743.19;5176100;28;20863;-67
2021/12/31 00:09:21;;;;;;;3.50;1.65;;;;;;;14.44;66.18;99765.03;5180422;28;20044;-67
2021/12/31 00:12:11;;;;;;;4.07;1.70;;;;;;;14.48;65.69;99772.56;5181405;28;20076;-66
2021/12/31 00:15:02;;;;;;;2.83;1.55;;;;;;;14.53;65.17;99767.63;5172273;28;20698;-66
2021/12/31 00:17:52;;;;;;;3.40;1.80;;;;;;;14.50;65.63;99775.06;5179224;28;20085;-66
2021/12/31 00:20:42;;;;;;;3.50;1.48;;;;;;;14.50;65.42;99772.41;5178338;28;20424;-66
2021/12/31 00:23:32;;;;;;;3.00;1.45;;;;;;;14.46;65.66;99763.03;5183555;28;20181;-66
2021/12/31 00:26:23;;;;;;;3.15;1.38;;;;;;;14.29;66.04;99770.00;5181768;28;20570;-66
2021/12/31 00:29:13;;;;;;;2.22;1.83;;;;;;;14.43;65.57;99776.66;5191176;28;20107;-67
2021/12/31 00:32:03;;;;;;;3.67;1.92;;;;;;;14.41;65.96;99774.16;5173827;28;20060;-66
2021/12/31 00:34:53;;;;;;;3.42;1.55;;;;;;;14.40;66.09;99780.47;5169903;28;20044;-66
2021/12/31 00:37:44;;;;;;;2.88;1.63;;;;;;;14.36;66.11;99776.41;5181577;28;20042;-68
2021/12/31 00:40:34;;;;;;;4.10;1.80;;;;;;;14.33;66.64;99771.38;5181127;28;20708;-67
2021/12/31 00:43:25;;;;;;;4.30;1.77;;;;;;;14.25;66.78;99768.63;5173589;28;20517;-67
2021/12/31 00:46:15;;;;;;;2.75;1.80;;;;;;;14.27;66.29;99772.84;5182935;28;20052;-67
2021/12/31 00:49:06;;;;;;;4.70;2.08;;;;;;;14.21;66.08;99767.25;5181096;28;20116;-67
2021/12/31 00:51:56;;;;;;;4.75;2.00;;;;;;;14.19;66.42;99778.06;5180210;28;20127;-67
2021/12/31 00:54:46;;;;;;;3.33;1.90;;;;;;;14.24;66.60;99777.63;5183258;28;20133;-67
2021/12/31 00:57:37;;;;;;;2.95;1.90;;;;;;;14.23;66.53;99778.59;5186566;28;20045;-67
2021/12/31 01:00:28;;;;;;;2.33;1.48;;;;;;;14.13;66.59;99775.97;5182489;28;20525;-67
2021/12/31 01:03:19;;;;;;;5.78;1.85;;;;;;;14.15;66.71;99784.69;5178750;28;20076;-68
2021/12/31 01:06:09;;;;;;;2.30;1.83;;;;;;;14.07;67.10;99777.44;5183885;28;20080;-67
2021/12/31 01:08:59;;;;;;;4.40;2.00;;;;;;;14.10;66.48;99782.47;5180883;28;20633;-67
2021/12/31 01:11:49;;;;;;;6.20;2.28;;;;;;;13.87;66.92;99778.47;5181392;28;20706;-68
2021/12/31 01:14:52;;;;;;;2.45;1.58;;;;;;;13.88;67.37;99777.50;5162147;28;20089;-67
2021/12/31 01:18:17;;;;;;;4.18;1.90;;;;;;;13.88;67.77;99788.16;5180483;28;20602;-68
2021/12/31 01:20:59;;;;;;;3.15;1.80;;;;;;;13.67;67.47;99760.84;5178473;28;20045;-67
2021/12/31 01:23:50;;;;;;;4.03;1.92;;;;;;;13.86;67.11;99795.44;5181291;28;20223;-69
2021/12/31 01:26:40;;;;;;;3.72;1.58;;;;;;;13.69;67.72;99783.72;5179359;28;20436;-67
2021/12/31 01:29:30;;;;;;;2.70;1.80;;;;;;;13.64;68.23;99777.97;5181172;28;20042;-68
2021/12/31 01:32:20;;;;;;;2.53;1.48;;;;;;;13.71;68.07;99796.88;5179264;28;20413;-69
2021/12/31 01:35:12;;;;;;;2.38;1.48;;;;;;;13.67;67.92;99795.50;5177572;28;20050;-68
2021/12/31 01:38:02;;;;;;;3.45;1.70;;;;;;;13.58;68.43;99790.06;5175838;28;20176;-67
2021/12/31 01:40:53;;;;;;;2.75;1.58;;;;;;;13.59;68.23;99783.75;5177867;28;20042;-67
2021/12/31 01:43:43;;;;;;;6.38;1.73;;;;;;;13.55;68.66;99787.69;5180015;28;20057;-67
2021/12/31 01:46:36;;;;;;;2.38;1.50;;;;;;;13.48;68.26;99770.59;5179354;28;20566;-67
2021/12/31 01:49:34;;;;;;;2.88;1.70;;;;;;;13.53;68.60;99786.97;5178783;28;20080;-68
2021/12/31 01:52:26;;;;;;;3.92;1.70;;;;;;;13.59;67.81;99783.75;5176641;28;20045;-68
2021/12/31 01:55:17;;;;;;;2.33;1.70;;;;;;;13.47;67.72;99792.88;5180294;28;20152;-68
2021/12/31 01:58:07;;;;;;;3.15;1.48;;;;;;;13.38;68.44;99791.91;5183470;28;20107;-67
2021/12/31 02:01:03;;;;;;;4.63;1.58;;;;;;;13.35;68.51;99794.88;5180120;28;20053;-67
2021/12/31 02:03:54;;;;;;;7.55;1.98;;;;;;;13.34;68.94;99787.88;5181157;28;20064;-67
2021/12/31 02:06:45;;;;;;;4.10;2.05;;;;;;;13.35;68.35;99783.38;5178046;28;20050;-68
2021/12/31 02:09:40;;;;;;;5.97;1.73;;;;;;;13.21;68.19;99786.41;5179439;28;20041;-67
2021/12/31 02:12:31;;;;;;;3.45;1.92;;;;;;;13.23;68.52;99782.63;5174823;28;20042;-67
2021/12/31 02:15:21;;;;;;;7.22;2.35;;;;;;;13.26;68.47;99777.06;5179629;28;20065;-67
2021/12/31 02:18:12;;;;;;;3.47;2.00;;;;;;;13.18;68.73;99776.91;5167861;28;20124;-68
2021/12/31 02:21:03;;;;;;;3.85;1.90;;;;;;;13.01;68.62;99770.44;5180983;28;20099;-67
2021/12/31 02:23:56;;;;;;;3.47;1.75;;;;;;;12.98;68.44;99770.75;5188917;28;20049;-67
2021/12/31 02:26:46;;;;;;;4.00;1.60;;;;;;;12.91;68.37;99789.13;5186046;28;20080;-67
2021/12/31 02:29:36;;;;;;;3.80;1.30;;;;;;;12.66;68.09;99771.84;5183836;28;20084;-68
2021/12/31 02:32:26;;;;;;;1.65;1.38;;;;;;;12.68;67.98;99771.69;5189092;28;20068;-67
2021/12/31 02:35:17;;;;;;;2.20;1.13;;;;;;;12.49;67.87;99777.84;5182291;28;20057;-67
2021/12/31 02:38:08;;;;;;;2.97;1.45;;;;;;;12.19;68.78;99745.03;5190345;28;20056;-68
2021/12/31 02:40:58;;;;;;;4.15;1.88;;;;;;;12.37;68.71;99769.13;5187587;28;20093;-66
2021/12/31 02:43:48;;;;;;;4.80;1.42;;;;;;;12.34;69.31;99769.41;5188086;28;20053;-68
2021/12/31 02:46:38;;;;;;;4.43;1.92;;;;;;;12.38;69.72;99769.97;5186588;28;20043;-67
2021/12/31 02:49:34;;;;;;;4.80;1.85;;;;;;;12.39;69.37;99763.69;5183190;28;20049;-67
2021/12/31 02:52:24;;;;;;;3.67;2.22;;;;;;;12.39;68.98;99771.66;5183108;28;20052;-67
2021/12/31 02:55:16;;;;;;;4.93;1.77;;;;;;;12.45;69.16;99771.13;5184906;28;20139;-66
2021/12/31 02:58:07;;;;;;;4.38;1.95;;;;;;;12.37;69.29;99770.94;5187036;28;20036;-68
2021/12/31 03:00:58;;;;;;;3.20;1.73;;;;;;;12.33;69.51;99766.88;5185332;28;20134;-67
2021/12/31 03:03:49;;;;;;;3.88;1.98;;;;;;;12.12;69.36;99751.84;5181473;28;20045;-69
2021/12/31 03:06:43;;;;;;;4.05;1.80;;;;;;;11.84;69.70;99756.06;5187956;28;20112;-68
2021/12/31 03:09:35;;;;;;;4.25;1.83;;;;;;;11.86;70.37;99771.91;5183399;28;20096;-66
2021/12/31 03:12:25;;;;;;;3.72;1.70;;;;;;;11.81;69.66;99766.09;5182190;28;20049;-68
2021/12/31 03:15:16;;;;;;;4.30;2.30;;;;;;;11.75;69.78;99770.13;5180628;28;20527;-68
2021/12/31 03:18:07;;;;;;;3.72;2.28;;;;;;;11.64;69.41;99754.28;5181940;28;20085;-68
2021/12/31 03:21:00;;;;;;;5.68;2.17;;;;;;;11.72;69.73;99757.97;5180909;28;20050;-66
2021/12/31 03:23:54;;;;;;;5.90;2.10;;;;;;;11.44;70.33;99766.59;5180585;28;20052;-68
2021/12/31 03:26:44;;;;;;;4.97;2.35;;;;;;;11.31;70.11;99748.22;5182594;28;20280;-67
2021/12/31 03:29:35;;;;;;;5.10;2.45;;;;;;;11.17;70.19;99752.03;5181366;28;20065;-67
2021/12/31 03:32:25;;;;;;;8.40;2.70;;;;;;;11.16;69.88;99771.59;5183392;28;20053;-68
2021/12/31 03:35:15;;;;;;;3.17;1.70;;;;;;;11.04;70.22;99780.56;5164185;28;20439;-68
2021/12/31 03:38:05;;;;;;;5.25;1.90;;;;;;;10.99;69.82;99780.97;5183343;28;20038;-68
2021/12/31 03:40:55;;;;;;;4.00;2.15;;;;;;;10.98;70.57;99773.13;5182589;28;20054;-66
2021/12/31 03:43:46;;;;;;;4.85;2.45;;;;;;;10.89;69.85;99776.53;5182181;28;20228;-66
2021/12/31 03:46:36;;;;;;;5.72;2.60;;;;;;;10.69;70.72;99772.84;5181184;28;20049;-67
2021/12/31 03:49:26;;;;;;;3.63;2.30;;;;;;;10.55;70.72;99769.53;5181890;28;20069;-67
2021/12/31 03:52:16;;;;;;;6.97;2.30;;;;;;;10.64;70.68;99785.66;5180071;28;20079;-67
2021/12/31 03:55:08;;;;;;;5.93;2.63;;;;;;;10.55;69.64;99752.78;5182191;28;20053;-67
2021/12/31 03:57:58;;;;;;;4.15;2.50;;;;;;;10.45;71.31;99775.69;5167733;28;20124;-67
2021/12/31 04:00:49;;;;;;;5.97;2.78;;;;;;;10.34;70.71;99777.41;5179406;28;20504;-67
2021/12/31 04:03:39;;;;;;;4.38;2.42;;;;;;;10.22;70.32;99774.84;5182094;28;20048;-67
2021/12/31 04:06:29;;;;;;;8.80;2.53;;;;;;;10.29;71.38;99779.56;5180354;28;20575;-67
2021/12/31 04:09:19;;;;;;;5.97;2.42;;;;;;;10.16;71.12;99780.66;5184612;28;20050;-67
2021/12/31 04:12:09;;;;;;;4.75;2.40;;;;;;;10.18;70.84;99784.88;5184220;28;20149;-67
2021/12/31 04:15:00;;;;;;;3.78;2.47;;;;;;;10.10;71.55;99776.69;5179074;28;20188;-67
2021/12/31 04:17:50;;;;;;;4.85;2.42;;;;;;;10.23;71.45;99768.59;5181620;28;20071;-67
2021/12/31 04:20:43;;;;;;;6.15;2.67;;;;;;;10.00;71.43;99757.16;5186006;28;20086;-67
2021/12/31 04:23:46;;;;;;;4.38;2.22;;;;;;;10.18;71.61;99768.97;5184010;28;20561;-67
2021/12/31 04:26:36;;;;;;;3.75;2.38;;;;;;;10.12;72.07;99766.78;5177982;28;20518;-67
2021/12/31 04:29:26;;;;;;;5.05;2.50;;;;;;;10.22;71.89;99764.25;5184980;28;20069;-67
2021/12/31 04:32:16;;;;;;;7.55;2.85;;;;;;;10.26;71.88;99755.97;5186800;28;20050;-67
2021/12/31 04:35:07;;;;;;;4.63;2.33;;;;;;;10.27;72.40;99754.19;5182865;28;20117;-67
2021/12/31 04:37:57;;;;;;;5.43;2.47;;;;;;;10.31;72.33;99758.25;5182212;28;20050;-67
2021/12/31 04:40:47;;;;;;;6.55;2.80;;;;;;;10.33;72.75;99761.59;5184360;28;20108;-67
2021/12/31 04:43:37;;;;;;;5.22;2.08;;;;;;;10.33;73.38;99753.66;5173780;28;20052;-67
2021/12/31 04:46:27;;;;;;;4.20;2.70;;;;;;;10.49;73.06;99750.63;5177260;28;20418;-67
2021/12/31 04:49:17;;;;;;;6.22;2.47;;;;;;;10.52;72.26;99756.50;5186242;28;20045;-68
2021/12/31 04:52:07;;;;;;;6.78;2.40;;;;;;;10.49;72.44;99753.28;5182867;28;20081;-67
2021/12/31 04:54:58;;;;;;;8.27;2.70;;;;;;;10.42;72.41;99747.63;5184880;28;20108;-67
2021/12/31 04:57:49;;;;;;;3.38;2.22;;;;;;;10.21;71.99;99736.09;5191220;28;20527;-67
2021/12/31 05:00:39;;;;;;;4.90;2.30;;;;;;;10.31;72.43;99753.78;5187598;28;20057;-67
2021/12/31 05:03:29;;;;;;;5.10;2.50;;;;;;;10.27;72.07;99741.75;5183571;28;20145;-67
2021/12/31 05:06:19;;;;;;;6.03;2.72;;;;;;;10.23;72.27;99750.91;5177019;28;20404;-67
2021/12/31 05:09:10;;;;;;;5.47;2.60;;;;;;;10.22;72.13;99751.00;5179708;28;20390;-67
2021/12/31 05:12:01;;;;;;;3.58;2.60;;;;;;;10.02;71.70;99749.94;5181917;28;20053;-67
2021/12/31 05:14:51;;;;;;;4.30;2.60;;;;;;;10.04;72.42;99748.03;5178814;28;20184;-67
2021/12/31 05:17:41;;;;;;;5.28;2.60;;;;;;;9.94;71.97;99753.22;5179690;28;20052;-67
2021/12/31 05:20:31;;;;;;;4.88;2.50;;;;;;;9.72;71.65;99732.03;5180652;28;20143;-67
2021/12/31 05:23:21;;;;;;;6.90;3.63;;;;;;;9.89;71.54;99736.81;5175017;28;20076;-67
2021/12/31 05:26:11;;;;;;;6.90;3.40;;;;;;;9.84;72.00;99750.44;5180765;28;20046;-67
2021/12/31 05:29:02;;;;;;;5.53;3.92;;;;;;;9.94;72.67;99750.56;5181434;28;20045;-69
2021/12/31 05:31:52;;;;;;;4.65;3.30;;;;;;;9.77;72.28;99749.25;5181110;28;20050;-67
2021/12/31 05:34:42;;;;;;;6.68;4.00;;;;;;;9.79;72.19;99751.75;5181551;28;20064;-66
2021/12/31 05:37:32;;;;;;;10.40;5.30;;;;;;;9.87;71.44;99739.63;5180217;28;20084;-67
2021/12/31 05:40:23;;;;;;;13.63;4.60;;;;;;;9.83;71.77;99738.19;5164577;28;20052;-67
2021/12/31 05:43:13;;;;;;;6.55;4.13;;;;;;;9.84;71.29;99736.38;5179529;28;20228;-67
2021/12/31 05:46:03;;;;;;;6.50;3.30;;;;;;;9.61;71.82;99732.88;5179980;28;20148;-67
2021/12/31 05:48:53;;;;;;;7.10;3.33;;;;;;;9.47;71.54;99746.31;5176391;28;20119;-67
2021/12/31 05:51:45;;;;;;;5.82;2.45;;;;;;;10.16;70.42;99746.19;5180819;28;20040;-66
2021/12/31 05:54:35;;;;;;;5.20;2.55;;;;;;;9.89;70.94;99742.13;5178906;28;20132;-66
2021/12/31 05:57:25;;;;;;;8.38;2.83;;;;;;;9.48;71.94;99740.91;5179143;28;20117;-67
2021/12/31 06:00:16;;;;;;;5.97;2.83;;;;;;;9.57;71.17;99736.69;5184256;28;20041;-66
2021/12/31 06:03:06;;;;;;;7.30;2.83;;;;;;;9.60;71.52;99741.75;5183977;28;20048;-66
2021/12/31 06:05:57;;;;;;;10.57;3.10;;;;;;;9.45;72.28;99735.00;5185166;28;20064;-66
2021/12/31 06:08:47;;;;;;;5.18;3.13;;;;;;;9.37;72.02;99732.94;5185952;28;20052;-66
2021/12/31 06:11:37;;;;;;;4.22;3.00;;;;;;;9.32;71.97;99717.44;5188939;28;20131;-67
2021/12/31 06:14:29;;;;;;;5.00;2.60;;;;;;;9.22;71.39;99713.81;5187904;28;20198;-66
2021/12/31 06:17:25;;;;;;;4.60;2.80;;;;;;;9.27;70.77;99731.97;5183844;28;20096;-66
2021/12/31 06:20:15;;;;;;;7.85;2.88;;;;;;;9.11;71.40;99737.59;5184426;28;20048;-66
2021/12/31 06:23:05;;;;;;;4.53;2.50;;;;;;;8.83;71.12;99747.59;5190924;28;20191;-66
2021/12/31 06:25:56;;;;;;;5.55;2.30;;;;;;;8.76;71.03;99749.00;5160195;28;20049;-66
2021/12/31 06:28:47;;;;;;;5.22;2.55;;;;;;;8.65;71.27;99738.41;5184685;28;21072;-66
2021/12/31 06:31:37;;;;;;;3.63;2.70;;;;;;;8.80;71.79;99755.75;5186220;28;20408;-66
2021/12/31 06:34:27;;;;;;;5.82;2.90;;;;;;;8.69;71.76;99761.00;5185986;28;20183;-67
2021/12/31 06:37:17;;;;;;;9.13;2.97;;;;;;;8.68;72.08;99764.59;5182531;28;20068;-67
2021/12/31 06:40:10;;;;;;;6.30;3.00;;;;;;;8.89;70.91;99757.72;5183752;28;20104;-67
2021/12/31 06:43:00;;;;;;;8.15;3.45;;;;;;;8.75;71.84;99751.78;5181854;28;20172;-67
2021/12/31 06:45:50;;;;;;;4.03;3.17;;;;;;;8.48;71.82;99752.84;5188773;28;20068;-67
2021/12/31 06:48:40;;;;;;;7.28;3.40;;;;;;;8.46;71.60;99763.53;5185049;28;20069;-67
2021/12/31 06:51:30;;;;;;;5.22;2.92;;;;;;;8.40;72.31;99757.84;5188630;28;20145;-67
2021/12/31 06:54:20;;;;;;;6.65;3.05;;;;;;;8.36;71.63;99759.00;5187295;28;20104;-67
2021/12/31 06:57:11;;;;;;;4.25;3.10;;;;;;;8.42;72.70;99764.72;5187415;28;20044;-67
2021/12/31 07:00:05;;;;;;;7.63;2.90;;;;;;;8.41;71.90;99755.09;5170769;28;20056;-67
2021/12/31 07:03:09;;;;;;;3.38;2.95;;;;;;;8.44;72.05;99744.31;5196074;28;20049;-67
2021/12/31 07:05:59;;;;;;;7.65;3.45;;;;;;;8.42;72.28;99748.00;5167494;28;20060;-67
2021/12/31 07:08:50;;;;;;;4.03;2.78;;;;;;;8.15;72.93;99756.09;5184162;28;20132;-67
2021/12/31 07:11:42;;;;;;;7.22;3.33;;;;;;;8.14;72.27;99765.78;5181962;28;20196;-67
2021/12/31 07:14:32;;;;;;;6.75;3.28;;;;;;;8.16;72.56;99769.19;5183908;28;20046;-67
2021/12/31 07:17:22;;;;;;;5.78;3.42;;;;;;;8.08;72.82;99754.81;5183279;28;20050;-67
2021/12/31 07:20:12;;;;;;;5.88;3.50;;;;;;;8.03;72.30;99759.59;5180258;28;20054;-67
2021/12/31 07:23:08;;;;;;;7.80;4.45;;;;;;;8.09;72.72;99770.59;5183006;28;20038;-67
2021/12/31 07:25:57;;;;;;;16.05;5.60;;;;;;;8.12;72.90;99774.81;5182505;28;20054;-68
2021/12/31 07:28:48;;;;;;;12.82;4.85;;;;;;;7.96;72.21;99767.97;5170277;28;20042;-67
2021/12/31 07:31:38;;;;;;;8.50;5.78;;;;;;;8.01;71.88;99775.53;5183185;28;20439;-67
2021/12/31 07:34:28;;;;;;;7.38;5.20;;;;;;;7.85;72.31;99749.41;5182086;28;20168;-67
2021/12/31 07:37:18;;;;;;;7.47;5.13;;;;;;;8.04;72.50;99772.69;5179331;28;20049;-67
2021/12/31 07:40:11;;;;;;;10.73;5.53;;;;;;;7.99;72.44;99767.75;5180716;28;20077;-67
2021/12/31 07:43:01;;;;;;;16.15;8.15;;;;;;;8.14;71.95;99775.53;5183167;28;20451;-67
2021/12/31 07:45:52;;;;;;;13.48;7.28;;;;;;;8.10;72.84;99776.69;5181613;28;20072;-67
2021/12/31 07:48:42;;;;;;;14.15;6.47;;;;;;;7.99;72.71;99770.38;5182596;28;20133;-67
2021/12/31 07:51:32;;;;;;;11.45;6.38;;;;;;;7.96;72.80;99767.13;5179607;28;20061;-67
2021/12/31 07:54:22;;;;;;;8.68;5.03;;;;;;;7.83;72.28;99756.56;5181807;28;20049;-67
2021/12/31 07:57:13;;;;;;;13.63;6.38;;;;;;;7.93;72.04;99770.81;5178273;28;20092;-68
2021/12/31 08:00:05;;;;;;;8.25;4.90;;;;;;;7.97;72.72;99774.91;5179025;28;20073;-67
2021/12/31 08:03:01;;;;;;;7.85;4.45;;;;;;;8.10;73.20;99779.34;5176508;28;20726;-67
2021/12/31 08:05:52;;;;;;;12.15;4.65;;;;;;;8.11;73.56;99786.31;5175968;28;20559;-67
2021/12/31 08:08:42;;;;;;;8.32;4.57;;;;;;;8.11;73.64;99779.25;5172940;28;20068;-68
2021/12/31 08:11:32;;;;;;;7.03;4.65;;;;;;;8.13;73.90;99784.41;5167993;28;20049;-67
2021/12/31 08:14:21;;;;;;;10.40;4.70;;;;;;;8.10;73.79;99784.63;5179563;28;20101;-67
2021/12/31 08:17:13;;;;;;;7.25;4.75;;;;;;;8.21;73.22;99787.34;5182226;28;20046;-67
2021/12/31 08:20:04;;;;;;;11.75;5.60;;;;;;;8.17;73.51;99791.16;5173876;28;20666;-67
2021/12/31 08:22:54;;;;;;;10.27;6.65;;;;;;;8.18;73.47;99790.22;5184147;28;20052;-67
2021/12/31 08:25:44;;;;;;;8.85;6.43;;;;;;;8.20;73.35;99791.78;5181158;28;20044;-67
2021/12/31 08:28:34;;;;;;;12.63;6.20;;;;;;;8.23;72.85;99788.91;5185879;28;20052;-67
2021/12/31 08:31:25;;;;;;;12.32;6.90;;;;;;;8.32;74.11;99790.06;5185534;28;20053;-67
2021/12/31 08:34:14;;;;;;;16.55;7.38;;;;;;;8.49;74.00;99795.97;5182130;28;20056;-67
2021/12/31 08:37:05;;;;;;;12.38;7.68;;;;;;;8.53;74.04;99786.88;5172134;28;20053;-67
2021/12/31 08:39:57;;;;;;;13.10;8.20;;;;;;;8.72;74.23;99781.94;5179642;28;20042;-70
2021/12/31 08:42:47;;;;;;;13.35;7.40;;;;;;;8.79;74.31;99761.16;5180992;28;20798;-67
2021/12/31 08:45:40;;;;;;;17.17;7.50;;;;;;;9.04;73.50;99770.75;5174243;28;20436;-67
2021/12/31 08:48:30;;;;;;;9.38;7.10;;;;;;;8.76;74.39;99772.81;5177062;28;20052;-68
2021/12/31 08:51:20;;;;;;;11.10;7.28;;;;;;;9.03;73.90;99774.34;5177259;28;20117;-66
2021/12/31 08:54:13;;;;;;;23.08;8.63;;;;;;;9.15;72.83;99773.44;5179136;28;20124;-67
2021/12/31 08:57:04;;;;;;;12.88;7.70;;;;;;;9.26;73.60;99776.09;5179035;28;20145;-68
2021/12/31 08:59:54;;;;;;;16.90;8.90;;;;;;;9.49;73.23;99761.13;5175214;28;20098;-68
2021/12/31 09:02:46;;;;;;;14.02;8.32;;;;;;;9.72;72.83;99763.81;5174626;28;20409;-67
2021/12/31 09:05:37;;;;;;;11.48;7.55;;;;;;;9.61;73.55;99772.59;5174239;28;20551;-68
2021/12/31 09:08:28;;;;;;;10.60;7.40;;;;;;;9.47;73.36;99768.34;5170769;28;20151;-68
2021/12/31 09:11:18;;;;;;;9.90;6.43;;;;;;;9.59;72.99;99762.09;5171539;28;20607;-68
2021/12/31 09:14:08;;;;;;;12.35;6.82;;;;;;;9.73;72.50;99765.47;5174236;28;20432;-68
2021/12/31 09:16:58;;;;;;;15.15;6.88;;;;;;;9.78;72.39;99761.50;5173459;28;20057;-68
2021/12/31 09:19:49;;;;;;;10.20;6.30;;;;;;;9.85;72.90;99746.81;5161387;28;20046;-68
2021/12/31 09:22:40;;;;;;;11.25;7.82;;;;;;;10.01;72.78;99757.06;5181435;28;20068;-69
2021/12/31 09:25:30;;;;;;;13.63;7.65;;;;;;;10.16;73.47;99760.28;5175211;28;20123;-68
2021/12/31 09:28:22;;;;;;;12.88;8.20;;;;;;;10.34;73.73;99750.91;5179168;28;20073;-69
2021/12/31 09:31:13;;;;;;;12.75;8.40;;;;;;;10.45;73.31;99750.03;5176345;28;20057;-70
2021/12/31 09:34:03;;;;;;;12.65;8.18;;;;;;;10.45;73.91;99757.97;5178088;28;20042;-71
2021/12/31 09:36:53;;;;;;;16.55;8.40;;;;;;;10.71;73.91;99761.16;5172919;28;20037;-69
2021/12/31 09:39:44;;;;;;;13.73;9.00;;;;;;;10.96;73.12;99761.78;5175352;28;20089;-70
2021/12/31 09:42:36;;;;;;;15.57;8.75;;;;;;;10.96;73.07;99759.13;5177848;28;20110;-68
2021/12/31 09:45:28;;;;;;;15.52;9.20;;;;;;;10.85;72.55;99740.63;5168826;28;20061;-68
2021/12/31 09:48:23;;;;;;;10.23;7.95;;;;;;;10.91;72.81;99756.88;5179616;28;20412;-71
2021/12/31 09:51:13;;;;;;;15.82;9.63;;;;;;;10.96;73.48;99765.28;5172771;28;20042;-69
2021/12/31 09:54:04;;;;;;;13.50;8.75;;;;;;;11.10;72.59;99772.09;5171516;28;20050;-68
2021/12/31 09:56:54;;;;;;;16.17;9.10;;;;;;;11.23;72.73;99767.44;5170292;28;20080;-69
2021/12/31 09:59:45;;;;;;;14.38;9.35;;;;;;;12.05;71.37;99771.97;5171343;28;20049;-68
2021/12/31 10:02:35;;;;;;;14.18;8.57;;;;;;;11.98;71.92;99776.97;5164949;28;20052;-68
2021/12/31 10:05:38;;;;;;;12.95;8.00;;;;;;;12.32;70.73;99770.53;5180559;28;20049;-68
2021/12/31 10:08:30;;;;;;;14.65;7.15;;;;;;;12.60;69.68;99771.56;5162227;28;20048;-69
2021/12/31 10:11:24;;;;;;;12.05;7.68;;;;;;;12.75;69.07;99764.88;5177946;28;20133;-68
2021/12/31 10:14:14;;;;;;;13.57;7.25;;;;;;;12.81;69.42;99755.47;5178135;28;20057;-68
2021/12/31 10:17:05;;;;;;;10.98;7.45;;;;;;;12.99;69.03;99753.78;5170793;28;20049;-67
2021/12/31 10:19:56;;;;;;;10.75;6.32;;;;;;;12.96;68.56;99756.75;5173312;28;20041;-68
2021/12/31 10:22:48;;;;;;;11.05;6.93;;;;;;;12.54;69.59;99751.66;5170774;28;20057;-68
2021/12/31 10:25:39;;;;;;;10.95;6.88;;;;;;;12.34;70.06;99734.00;5174263;28;20080;-70
2021/12/31 10:28:29;;;;;;;11.38;7.32;;;;;;;12.41;70.11;99746.59;5168617;28;20042;-70
2021/12/31 10:31:19;;;;;;;11.80;6.93;;;;;;;12.24;70.18;99739.28;5171271;28;20046;-70
2021/12/31 10:34:29;;;;;;;11.52;6.78;;;;;;;12.62;70.32;99729.72;5176315;28;20528;-68
2021/12/31 10:37:23;;;;;;;10.00;6.85;;;;;;;12.69;70.01;99721.03;5172283;28;20049;-69
2021/12/31 10:40:36;;;;;;;11.07;6.53;;;;;;;13.19;68.72;99719.16;5176572;28;20107;-68
2021/12/31 10:43:29;;;;;;;10.50;6.32;;;;;;;13.24;68.49;99719.56;5170856;28;20050;-68
2021/12/31 10:46:19;;;;;;;9.98;6.57;;;;;;;13.66;67.41;99704.06;5174666;28;20579;-67
2021/12/31 10:49:11;;;;;;;11.23;6.30;;;;;;;13.28;69.02;99692.56;5174436;28;20547;-69
2021/12/31 10:52:05;;;;;;;11.43;6.10;;;;;;;13.47;68.85;99709.44;5174408;28;20053;-67
2021/12/31 10:55:15;;;;;;;8.13;5.97;;;;;;;13.60;66.73;99697.47;5175789;28;20139;-68
2021/12/31 10:58:10;;;;;;;9.23;5.80;;;;;;;13.91;66.73;99704.38;5176215;28;20103;-69
2021/12/31 11:01:04;;;;;;;12.40;5.25;;;;;;;13.97;66.55;99701.97;5176475;28;20037;-68
2021/12/31 11:03:55;;;;;;;9.15;5.68;;;;;;;13.66;65.99;99706.72;5172578;28;20057;-68
2021/12/31 11:06:46;;;;;;;7.88;5.20;;;;;;;13.66;67.32;99701.41;5171949;28;20073;-68
2021/12/31 11:09:36;;;;;;;8.57;5.72;;;;;;;14.02;66.59;99701.53;5180162;28;20046;-68
2021/12/31 11:12:27;;;;;;;22.10;12.65;;;;;;;14.26;64.98;99688.44;5176483;28;20140;-69
2021/12/31 11:15:17;;;;;;;8.90;5.60;;;;;;;14.22;65.39;99683.56;5178276;28;20045;-69
2021/12/31 11:18:08;;;;;;;9.27;5.05;;;;;;;14.16;65.92;99689.50;5174061;28;20602;-70
2021/12/31 11:21:02;;;;;;;9.45;5.95;;;;;;;14.01;66.41;99671.34;5177927;28;20045;-68
2021/12/31 11:23:52;;;;;;;7.57;5.65;;;;;;;13.93;66.77;99673.06;5177438;28;20052;-69
2021/12/31 11:26:43;;;;;;;6.65;4.68;;;;;;;13.95;67.10;99674.63;5158108;28;20054;-69
2021/12/31 11:29:38;;;;;;;7.93;4.82;;;;;;;14.22;65.68;99668.41;5171758;28;20422;-68
2021/12/31 11:32:47;;;;;;;7.68;5.25;;;;;;;14.70;64.52;99671.72;5176199;28;20423;-68
2021/12/31 11:35:44;;;;;;;10.90;5.47;;;;;;;14.72;64.77;99653.72;5162308;28;20038;-68
2021/12/31 11:38:36;;;;;;;9.23;5.97;;;;;;;14.52;65.51;99661.91;5176568;28;20041;-69
2021/12/31 11:41:27;;;;;;;8.40;5.57;;;;;;;14.37;66.05;99654.53;5178096;28;20096;-69
2021/12/31 11:44:17;;;;;;;8.15;5.65;;;;;;;14.25;66.26;99645.94;5181008;28;20056;-67
2021/12/31 11:47:18;;;;;;;8.27;5.05;;;;;;;14.89;64.04;99655.53;5178407;28;20054;-68
2021/12/31 11:50:25;;;;;;;6.80;4.57;;;;;;;14.62;64.73;99656.47;5175934;28;20123;-70
2021/12/31 11:53:15;;;;;;;7.57;4.88;;;;;;;14.72;64.55;99656.41;5182119;28;20586;-68
2021/12/31 11:56:05;;;;;;;10.65;5.05;;;;;;;14.40;65.89;99676.41;5180777;28;20056;-69
2021/12/31 11:58:55;;;;;;;7.55;5.40;;;;;;;14.46;66.19;99686.47;5166039;28;20086;-68
2021/12/31 12:02:04;;;;;;;10.25;5.72;;;;;;;14.04;67.34;99678.22;5183445;28;20285;-69
2021/12/31 12:05:05;;;;;;;8.52;5.60;;;;;;;14.05;67.17;99694.06;5173914;28;20053;-68
2021/12/31 12:07:55;;;;;;;9.05;6.00;;;;;;;14.19;66.68;99690.03;5177495;28;20045;-68
2021/12/31 12:10:45;;;;;;;9.63;6.40;;;;;;;14.43;66.71;99688.63;5165607;28;20436;-74
2021/12/31 12:13:35;;;;;;;7.25;5.05;;;;;;;14.24;67.04;99690.44;5179360;28;20052;-71
2021/12/31 12:17:00;;;;;;;9.88;6.18;;;;;;;14.74;66.03;99702.47;5179494;28;20115;-71
2021/12/31 12:19:50;;;;;;;10.30;5.65;;;;;;;14.56;66.56;99713.13;5068483;29;20123;-67
2021/12/31 12:22:53;;;;;;;10.52;6.75;;;;;;;14.30;67.25;99724.53;5179599;28;20175;-68
2021/12/31 12:25:44;;;;;;;9.65;5.88;;;;;;;14.73;66.33;99704.28;5181498;28;20428;-70
2021/12/31 12:28:34;;;;;;;9.30;6.13;;;;;;;14.98;64.94;99707.19;5174165;28;22004;-69
2021/12/31 12:31:25;;;;;;;11.20;6.95;;;;;;;14.26;67.52;99692.94;5177995;28;20037;-68
2021/12/31 12:34:27;;;;;;;10.85;6.63;;;;;;;14.51;66.43;99694.91;5172274;28;20046;-69
2021/12/31 12:37:26;;;;;;;9.98;6.00;;;;;;;14.71;66.16;99681.41;5177690;28;20135;-67
2021/12/31 12:40:17;;;;;;;9.80;5.82;;;;;;;14.32;67.36;99682.50;5180309;28;20050;-68
2021/12/31 12:43:13;;;;;;;8.57;5.60;;;;;;;14.75;66.24;99664.94;5177103;28;20111;-67
2021/12/31 12:46:06;;;;;;;7.72;5.13;;;;;;;14.70;65.81;99687.72;5168090;28;20524;-67
2021/12/31 12:48:58;;;;;;;7.88;5.20;;;;;;;14.98;65.60;99692.00;5177510;28;20140;-66
2021/12/31 12:51:48;;;;;;;8.43;5.50;;;;;;;15.02;65.33;99676.50;5177174;28;20060;-67
2021/12/31 12:54:38;;;;;;;8.70;4.80;;;;;;;15.02;65.03;99671.16;5174107;28;20702;-67
2021/12/31 12:57:29;;;;;;;8.65;4.82;;;;;;;15.17;64.46;99668.75;5178941;28;20128;-67
2021/12/31 13:00:34;;;;;;;9.00;4.95;;;;;;;14.95;65.52;99670.94;5176242;28;20054;-67
2021/12/31 13:03:24;;;;;;;6.93;4.70;;;;;;;15.04;64.13;99675.34;5174017;28;20420;-67
2021/12/31 13:06:15;;;;;;;7.65;4.68;;;;;;;14.41;66.10;99662.09;5178677;28;20050;-69
2021/12/31 13:09:10;;;;;;;8.60;4.78;;;;;;;14.75;64.80;99658.75;5163268;28;20178;-68
2021/12/31 13:12:02;;;;;;;7.25;4.38;;;;;;;14.97;64.39;99625.41;5179272;28;20054;-67
2021/12/31 13:14:54;;;;;;;7.32;3.63;;;;;;;15.63;61.96;99632.78;5178209;28;20424;-68
2021/12/31 13:18:00;;;;;;;7.20;4.10;;;;;;;15.39;62.88;99629.97;5174497;28;20046;-67
2021/12/31 13:21:02;;;;;;;6.13;4.30;;;;;;;15.77;62.01;99617.97;5173649;28;20053;-68
2021/12/31 13:23:55;;;;;;;5.43;3.78;;;;;;;15.60;62.16;99618.91;5175670;28;20447;-69
2021/12/31 13:26:55;;;;;;;6.00;4.20;;;;;;;15.45;62.48;99608.78;5176508;28;20068;-69
2021/12/31 13:29:44;;;;;;;5.32;3.83;;;;;;;15.70;62.53;99619.63;5177615;28;20038;-69